Pittsburgh, PA (15211)

4:03 AM EST on December 10, 2016 (GMT -0500)
Energy Flow | | Change Station

Elev 720 ft 40.45 °N, 80.00 °W | Updated 8 minutes ago

Overcast
Overcast
27.1 °F
Feels Like 20 °F
N
7.0
Wind Variable Wind from SW
Gusts 13.0 mph

Today
High -- | Low -- °F
--% Chance of Precip.
Yesterday
High -- | Low -- °F
Precip. -- in
Pressure 30.47 in
Visibility 10.0 miles
Clouds Mostly Cloudy 1700 ft
Mostly Cloudy 2400 ft
Overcast 3200 ft
Windchill 20 °F
Dew Point 21 °F
Humidity 77%
Rainfall 0.00 in
Snow Depth Not available.
7:32 AM 4:53 PM
Waxing Gibbous, 82% visible
METAR KAGC 100853Z AUTO 26008KT 10SM BKN017 BKN024 OVC032 M05/M08 A3040 RMK AO2 SLP318 T10501083 53005
Pressure 30.47 in
Visibility 10.0 miles
Clouds Mostly Cloudy 1700 ft
Mostly Cloudy 2400 ft
Overcast 3200 ft
Windchill 20 °F
Dew Point 21 °F
Humidity 77%
Rainfall 0.00 in
Snow Depth Not available.
7:32 AM 4:53 PM
Waxing Gibbous, 82% visible
METAR KAGC 100853Z AUTO 26008KT 10SM BKN017 BKN024 OVC032 M05/M08 A3040 RMK AO2 SLP318 T10501083 53005

10-Day Weather Forecast

Almanac

Astronomy

Dec. 10, 2016 Rise Set
Actual Time
Civil Twilight
Nautical Twilight
Astronomical Twilight
Moon
Length of Visible Light
Length of Day
Tomorrow will be .
, % of the Moon is Illuminated

Today's Extremes

State Highs State Lows

Community

WunderPhotos

Upload Photos

1,956,538 photos uploaded!

WunderBlog® & News

Nearby

Air Quality

  Air Quality AQ Index Pollutant
Not available.

Snow Depth

Station Depth Elevation

Earthquake Activity

City Distance Mag. Time & Date
Minimum magnitude displayed is 2.5.

Coastal Water Temperatures

Place Temperature

Stations

Nearby Weather Stations

Station Location Temp. Windchill Dew Point Humidity Wind Precip. Elev Updated Type
                   

Watches & Warnings

There are currently no watches in effect.